sensor_id;sensor_type;location;lat;lon;timestamp;temperature;humidity
14779;DHT22;7481;53.750;10.570;2022-09-09T00:01:56;15.40;99.90
14779;DHT22;7481;53.750;10.570;2022-09-09T00:05:00;15.20;99.90
14779;DHT22;7481;53.750;10.570;2022-09-09T00:07:51;15.20;99.90
14779;DHT22;7481;53.750;10.570;2022-09-09T00:10:39;15.20;99.90
14779;DHT22;7481;53.750;10.570;2022-09-09T00:13:44;15.20;99.90
14779;DHT22;7481;53.750;10.570;2022-09-09T00:16:35;15.20;99.90
14779;DHT22;7481;53.750;10.570;2022-09-09T00:22:29;15.20;99.90
14779;DHT22;7481;53.750;10.570;2022-09-09T00:25:26;15.20;99.90
14779;DHT22;7481;53.750;10.570;2022-09-09T00:28:25;15.20;99.90
14779;DHT22;7481;53.750;10.570;2022-09-09T00:31:16;15.20;99.90
14779;DHT22;7481;53.750;10.570;2022-09-09T00:34:13;15.20;99.90
14779;DHT22;7481;53.750;10.570;2022-09-09T00:37:03;15.10;99.90
14779;DHT22;7481;53.750;10.570;2022-09-09T00:39:50;15.20;99.90
14779;DHT22;7481;53.750;10.570;2022-09-09T00:42:43;15.10;99.90
14779;DHT22;7481;53.750;10.570;2022-09-09T00:45:52;15.00;99.90
14779;DHT22;7481;53.750;10.570;2022-09-09T00:54:48;15.10;99.90
14779;DHT22;7481;53.750;10.570;2022-09-09T00:57:37;15.20;99.90
14779;DHT22;7481;53.750;10.570;2022-09-09T01:00:29;15.20;99.90
14779;DHT22;7481;53.750;10.570;2022-09-09T01:06:31;15.20;99.90
14779;DHT22;7481;53.750;10.570;2022-09-09T01:09:58;15.30;99.90
14779;DHT22;7481;53.750;10.570;2022-09-09T01:12:47;15.40;99.90
14779;DHT22;7481;53.750;10.570;2022-09-09T01:15:34;15.40;99.90
14779;DHT22;7481;53.750;10.570;2022-09-09T01:18:29;15.30;99.90
14779;DHT22;7481;53.750;10.570;2022-09-09T01:21:27;15.30;99.90
14779;DHT22;7481;53.750;10.570;2022-09-09T01:24:27;15.30;99.90
14779;DHT22;7481;53.750;10.570;2022-09-09T01:27:18;15.30;99.90
14779;DHT22;7481;53.750;10.570;2022-09-09T01:30:15;15.20;99.90
14779;DHT22;7481;53.750;10.570;2022-09-09T01:33:03;15.30;99.90
14779;DHT22;7481;53.750;10.570;2022-09-09T01:35:58;15.30;99.90
14779;DHT22;7481;53.750;10.570;2022-09-09T01:38:47;15.20;99.90
14779;DHT22;7481;53.750;10.570;2022-09-09T01:41:34;15.20;99.90
14779;DHT22;7481;53.750;10.570;2022-09-09T01:44:22;15.40;99.90
14779;DHT22;7481;53.750;10.570;2022-09-09T01:47:09;15.30;99.90
14779;DHT22;7481;53.750;10.570;2022-09-09T01:49:56;15.40;99.90
14779;DHT22;7481;53.750;10.570;2022-09-09T01:52:45;15.30;99.90
14779;DHT22;7481;53.750;10.570;2022-09-09T01:55:42;15.60;99.90
14779;DHT22;7481;53.750;10.570;2022-09-09T02:04:39;15.40;99.90
14779;DHT22;7481;53.750;10.570;2022-09-09T02:10:24;15.40;99.90
14779;DHT22;7481;53.750;10.570;2022-09-09T02:13:15;15.40;99.90
14779;DHT22;7481;53.750;10.570;2022-09-09T02:16:19;16.70;99.90
14779;DHT22;7481;53.750;10.570;2022-09-09T02:21:57;15.40;99.90
14779;DHT22;7481;53.750;10.570;2022-09-09T02:24:45;15.50;99.90
14779;DHT22;7481;53.750;10.570;2022-09-09T02:27:33;16.40;99.90
14779;DHT22;7481;53.750;10.570;2022-09-09T02:30:21;15.40;99.90
14779;DHT22;7481;53.750;10.570;2022-09-09T02:33:09;15.40;99.90
14779;DHT22;7481;53.750;10.570;2022-09-09T02:35:59;15.40;99.90
14779;DHT22;7481;53.750;10.570;2022-09-09T02:38:50;15.30;99.90
14779;DHT22;7481;53.750;10.570;2022-09-09T02:41:41;15.30;99.90
14779;DHT22;7481;53.750;10.570;2022-09-09T02:44:28;15.30;99.90
14779;DHT22;7481;53.750;10.570;2022-09-09T02:50:54;15.40;99.90
14779;DHT22;7481;53.750;10.570;2022-09-09T02:54:09;15.30;99.90
14779;DHT22;7481;53.750;10.570;2022-09-09T02:57:25;15.30;99.90
14779;DHT22;7481;53.750;10.570;2022-09-09T03:00:14;15.30;99.90
14779;DHT22;7481;53.750;10.570;2022-09-09T03:03:03;15.30;99.90
14779;DHT22;7481;53.750;10.570;2022-09-09T03:05:50;15.40;99.90
14779;DHT22;7481;53.750;10.570;2022-09-09T03:08:37;15.40;99.90
14779;DHT22;7481;53.750;10.570;2022-09-09T03:11:24;14.40;99.90
14779;DHT22;7481;53.750;10.570;2022-09-09T03:14:11;15.40;99.90
14779;DHT22;7481;53.750;10.570;2022-09-09T03:16:58;15.40;99.90
14779;DHT22;7481;53.750;10.570;2022-09-09T03:19:47;15.40;99.90
14779;DHT22;7481;53.750;10.570;2022-09-09T03:22:36;15.90;99.90
14779;DHT22;7481;53.750;10.570;2022-09-09T03:25:23;15.40;99.90
14779;DHT22;7481;53.750;10.570;2022-09-09T03:28:11;15.40;99.90
14779;DHT22;7481;53.750;10.570;2022-09-09T03:31:03;15.40;99.90
14779;DHT22;7481;53.750;10.570;2022-09-09T03:33:50;15.40;99.90
14779;DHT22;7481;53.750;10.570;2022-09-09T03:36:37;15.40;99.90
14779;DHT22;7481;53.750;10.570;2022-09-09T03:39:24;15.30;99.90
14779;DHT22;7481;53.750;10.570;2022-09-09T03:42:14;15.30;99.90
14779;DHT22;7481;53.750;10.570;2022-09-09T03:45:07;15.20;99.90
14779;DHT22;7481;53.750;10.570;2022-09-09T03:47:55;15.20;99.90
14779;DHT22;7481;53.750;10.570;2022-09-09T03:50:51;15.10;99.90
14779;DHT22;7481;53.750;10.570;2022-09-09T03:53:39;15.10;99.90
14779;DHT22;7481;53.750;10.570;2022-09-09T03:56:26;15.10;99.90
14779;DHT22;7481;53.750;10.570;2022-09-09T03:59:13;15.10;99.90
14779;DHT22;7481;53.750;10.570;2022-09-09T04:02:01;15.10;99.90
14779;DHT22;7481;53.750;10.570;2022-09-09T04:04:49;15.20;99.90
14779;DHT22;7481;53.750;10.570;2022-09-09T04:07:36;15.10;99.90
14779;DHT22;7481;53.750;10.570;2022-09-09T04:10:23;15.10;99.90
14779;DHT22;7481;53.750;10.570;2022-09-09T04:13:10;15.00;99.90
14779;DHT22;7481;53.750;10.570;2022-09-09T04:15:59;15.10;99.90
14779;DHT22;7481;53.750;10.570;2022-09-09T04:18:46;15.00;99.90
14779;DHT22;7481;53.750;10.570;2022-09-09T04:21:34;15.10;99.90
14779;DHT22;7481;53.750;10.570;2022-09-09T04:24:21;15.20;99.90
14779;DHT22;7481;53.750;10.570;2022-09-09T04:27:08;15.10;99.90
14779;DHT22;7481;53.750;10.570;2022-09-09T04:29:55;15.10;99.90
14779;DHT22;7481;53.750;10.570;2022-09-09T04:32:43;15.10;99.90
14779;DHT22;7481;53.750;10.570;2022-09-09T04:35:30;15.10;99.90
14779;DHT22;7481;53.750;10.570;2022-09-09T04:38:17;15.20;99.90
14779;DHT22;7481;53.750;10.570;2022-09-09T04:41:05;15.30;99.90
14779;DHT22;7481;53.750;10.570;2022-09-09T04:43:52;15.50;99.90
14779;DHT22;7481;53.750;10.570;2022-09-09T04:46:40;15.60;99.90
14779;DHT22;7481;53.750;10.570;2022-09-09T04:49:28;15.60;99.90
14779;DHT22;7481;53.750;10.570;2022-09-09T04:52:15;15.60;99.90
14779;DHT22;7481;53.750;10.570;2022-09-09T04:55:04;15.50;99.90
14779;DHT22;7481;53.750;10.570;2022-09-09T04:57:51;15.40;99.90
14779;DHT22;7481;53.750;10.570;2022-09-09T05:00:38;15.30;99.90
14779;DHT22;7481;53.750;10.570;2022-09-09T05:03:25;15.20;99.90
14779;DHT22;7481;53.750;10.570;2022-09-09T05:06:19;15.10;99.90
14779;DHT22;7481;53.750;10.570;2022-09-09T05:09:06;15.00;99.90
14779;DHT22;7481;53.750;10.570;2022-09-09T05:11:53;14.90;99.90
14779;DHT22;7481;53.750;10.570;2022-09-09T05:14:40;14.90;99.90
14779;DHT22;7481;53.750;10.570;2022-09-09T05:17:27;14.80;99.90
14779;DHT22;7481;53.750;10.570;2022-09-09T05:20:14;14.90;99.90
14779;DHT22;7481;53.750;10.570;2022-09-09T05:23:03;14.90;99.90
14779;DHT22;7481;53.750;10.570;2022-09-09T05:25:57;14.90;99.90
14779;DHT22;7481;53.750;10.570;2022-09-09T05:28:45;15.00;99.90
14779;DHT22;7481;53.750;10.570;2022-09-09T05:31:32;15.10;99.90
14779;DHT22;7481;53.750;10.570;2022-09-09T05:34:19;15.10;99.90
14779;DHT22;7481;53.750;10.570;2022-09-09T05:37:07;15.00;99.90
14779;DHT22;7481;53.750;10.570;2022-09-09T05:39:54;15.10;99.90
14779;DHT22;7481;53.750;10.570;2022-09-09T05:42:41;15.10;99.90
14779;DHT22;7481;53.750;10.570;2022-09-09T05:45:28;15.10;99.90
14779;DHT22;7481;53.750;10.570;2022-09-09T05:48:15;15.10;99.90
14779;DHT22;7481;53.750;10.570;2022-09-09T05:51:03;15.10;99.90
14779;DHT22;7481;53.750;10.570;2022-09-09T05:53:51;15.50;99.90
14779;DHT22;7481;53.750;10.570;2022-09-09T05:56:38;15.20;99.90
14779;DHT22;7481;53.750;10.570;2022-09-09T05:59:25;15.20;99.90
14779;DHT22;7481;53.750;10.570;2022-09-09T06:02:12;15.30;99.90
14779;DHT22;7481;53.750;10.570;2022-09-09T06:05:00;15.40;99.90
14779;DHT22;7481;53.750;10.570;2022-09-09T06:07:47;15.30;99.90
14779;DHT22;7481;53.750;10.570;2022-09-09T06:10:34;15.30;99.90
14779;DHT22;7481;53.750;10.570;2022-09-09T06:13:21;15.40;99.90
14779;DHT22;7481;53.750;10.570;2022-09-09T06:16:17;15.40;99.90
14779;DHT22;7481;53.750;10.570;2022-09-09T06:19:04;16.80;99.90
14779;DHT22;7481;53.750;10.570;2022-09-09T06:21:51;15.50;99.90
14779;DHT22;7481;53.750;10.570;2022-09-09T06:24:38;15.50;99.90
14779;DHT22;7481;53.750;10.570;2022-09-09T06:27:27;15.60;99.90
14779;DHT22;7481;53.750;10.570;2022-09-09T06:30:14;15.60;99.90
14779;DHT22;7481;53.750;10.570;2022-09-09T06:33:01;15.60;99.90
14779;DHT22;7481;53.750;10.570;2022-09-09T06:35:52;15.60;99.90
14779;DHT22;7481;53.750;10.570;2022-09-09T06:38:40;15.60;99.90
14779;DHT22;7481;53.750;10.570;2022-09-09T06:41:29;15.50;99.90
14779;DHT22;7481;53.750;10.570;2022-09-09T06:44:16;15.60;99.90
14779;DHT22;7481;53.750;10.570;2022-09-09T06:47:03;15.60;99.90
14779;DHT22;7481;53.750;10.570;2022-09-09T06:49:50;15.60;99.90
14779;DHT22;7481;53.750;10.570;2022-09-09T06:52:37;17.20;99.90
14779;DHT22;7481;53.750;10.570;2022-09-09T06:55:24;15.90;99.90
14779;DHT22;7481;53.750;10.570;2022-09-09T06:58:11;15.90;99.90
14779;DHT22;7481;53.750;10.570;2022-09-09T07:01:03;16.10;99.90
14779;DHT22;7481;53.750;10.570;2022-09-09T07:03:52;16.00;99.90
14779;DHT22;7481;53.750;10.570;2022-09-09T07:06:41;16.00;99.90
14779;DHT22;7481;53.750;10.570;2022-09-09T07:09:29;16.00;99.90
14779;DHT22;7481;53.750;10.570;2022-09-09T07:12:18;16.00;99.90
14779;DHT22;7481;53.750;10.570;2022-09-09T07:15:05;16.10;99.90
14779;DHT22;7481;53.750;10.570;2022-09-09T07:17:52;16.30;99.90
14779;DHT22;7481;53.750;10.570;2022-09-09T07:20:40;16.50;99.90
14779;DHT22;7481;53.750;10.570;2022-09-09T07:23:28;16.80;99.90
14779;DHT22;7481;53.750;10.570;2022-09-09T07:26:23;16.80;99.90
14779;DHT22;7481;53.750;10.570;2022-09-09T07:29:11;17.00;99.90
14779;DHT22;7481;53.750;10.570;2022-09-09T07:32:06;17.80;99.90
14779;DHT22;7481;53.750;10.570;2022-09-09T07:34:53;18.60;99.90
14779;DHT22;7481;53.750;10.570;2022-09-09T07:37:40;18.80;99.90
14779;DHT22;7481;53.750;10.570;2022-09-09T07:40:27;19.50;99.90
14779;DHT22;7481;53.750;10.570;2022-09-09T07:43:15;20.70;99.90
14779;DHT22;7481;53.750;10.570;2022-09-09T07:46:05;21.90;99.90
14779;DHT22;7481;53.750;10.570;2022-09-09T07:48:55;23.00;99.90
14779;DHT22;7481;53.750;10.570;2022-09-09T07:51:44;23.50;99.90
14779;DHT22;7481;53.750;10.570;2022-09-09T07:54:31;24.10;99.90
14779;DHT22;7481;53.750;10.570;2022-09-09T07:57:19;22.30;99.90
14779;DHT22;7481;53.750;10.570;2022-09-09T08:00:06;21.70;99.90
14779;DHT22;7481;53.750;10.570;2022-09-09T08:02:53;21.50;99.90
14779;DHT22;7481;53.750;10.570;2022-09-09T08:05:41;21.80;99.90
14779;DHT22;7481;53.750;10.570;2022-09-09T08:08:28;21.80;99.90
14779;DHT22;7481;53.750;10.570;2022-09-09T08:11:16;21.70;99.90
14779;DHT22;7481;53.750;10.570;2022-09-09T08:14:04;21.40;99.90
14779;DHT22;7481;53.750;10.570;2022-09-09T08:16:51;21.30;99.90
14779;DHT22;7481;53.750;10.570;2022-09-09T08:19:41;20.90;99.90
14779;DHT22;7481;53.750;10.570;2022-09-09T08:22:28;20.30;99.90
14779;DHT22;7481;53.750;10.570;2022-09-09T08:25:15;19.80;99.90
14779;DHT22;7481;53.750;10.570;2022-09-09T08:28:02;19.50;99.90
14779;DHT22;7481;53.750;10.570;2022-09-09T08:30:49;20.30;99.90
14779;DHT22;7481;53.750;10.570;2022-09-09T08:33:41;20.50;99.90
14779;DHT22;7481;53.750;10.570;2022-09-09T08:36:29;20.60;99.90
14779;DHT22;7481;53.750;10.570;2022-09-09T08:39:19;21.00;99.90
14779;DHT22;7481;53.750;10.570;2022-09-09T08:42:13;21.50;99.90
14779;DHT22;7481;53.750;10.570;2022-09-09T08:45:12;22.00;99.90
14779;DHT22;7481;53.750;10.570;2022-09-09T08:48:15;22.00;99.90
14779;DHT22;7481;53.750;10.570;2022-09-09T08:51:06;22.10;99.90
14779;DHT22;7481;53.750;10.570;2022-09-09T08:53:54;22.00;99.90
14779;DHT22;7481;53.750;10.570;2022-09-09T08:56:46;22.00;99.90
14779;DHT22;7481;53.750;10.570;2022-09-09T08:59:33;21.60;99.90
14779;DHT22;7481;53.750;10.570;2022-09-09T09:02:30;21.10;99.90
14779;DHT22;7481;53.750;10.570;2022-09-09T09:06:01;20.60;99.90
14779;DHT22;7481;53.750;10.570;2022-09-09T09:08:46;20.20;99.90
14779;DHT22;7481;53.750;10.570;2022-09-09T09:11:48;20.10;99.90
14779;DHT22;7481;53.750;10.570;2022-09-09T09:14:36;20.10;99.90
14779;DHT22;7481;53.750;10.570;2022-09-09T09:17:26;20.00;99.90
14779;DHT22;7481;53.750;10.570;2022-09-09T09:20:16;20.00;99.90
14779;DHT22;7481;53.750;10.570;2022-09-09T09:23:05;20.20;99.90
14779;DHT22;7481;53.750;10.570;2022-09-09T09:25:56;20.40;99.90
14779;DHT22;7481;53.750;10.570;2022-09-09T09:28:45;20.20;99.90
14779;DHT22;7481;53.750;10.570;2022-09-09T09:31:32;20.00;99.90
14779;DHT22;7481;53.750;10.570;2022-09-09T09:34:19;20.70;99.90
14779;DHT22;7481;53.750;10.570;2022-09-09T09:37:16;21.50;99.90
14779;DHT22;7481;53.750;10.570;2022-09-09T09:40:18;22.30;99.90
14779;DHT22;7481;53.750;10.570;2022-09-09T09:43:05;22.50;99.90
14779;DHT22;7481;53.750;10.570;2022-09-09T09:45:55;23.00;99.90
14779;DHT22;7481;53.750;10.570;2022-09-09T09:49:05;23.30;99.90
14779;DHT22;7481;53.750;10.570;2022-09-09T09:52:00;23.30;99.90
14779;DHT22;7481;53.750;10.570;2022-09-09T09:54:48;22.60;99.90
14779;DHT22;7481;53.750;10.570;2022-09-09T09:57:36;22.70;99.90
14779;DHT22;7481;53.750;10.570;2022-09-09T10:00:23;22.70;99.90
14779;DHT22;7481;53.750;10.570;2022-09-09T10:03:23;22.50;99.90
14779;DHT22;7481;53.750;10.570;2022-09-09T10:06:11;23.50;99.90
14779;DHT22;7481;53.750;10.570;2022-09-09T10:08:58;21.90;99.90
14779;DHT22;7481;53.750;10.570;2022-09-09T10:15:07;22.00;99.90
14779;DHT22;7481;53.750;10.570;2022-09-09T10:18:25;21.90;99.90
14779;DHT22;7481;53.750;10.570;2022-09-09T10:30:36;24.10;99.90
14779;DHT22;7481;53.750;10.570;2022-09-09T10:33:47;24.10;99.90
14779;DHT22;7481;53.750;10.570;2022-09-09T10:36:44;23.40;99.90
14779;DHT22;7481;53.750;10.570;2022-09-09T10:39:39;23.60;99.90
14779;DHT22;7481;53.750;10.570;2022-09-09T10:42:31;24.40;99.90
14779;DHT22;7481;53.750;10.570;2022-09-09T10:45:23;24.80;99.90
14779;DHT22;7481;53.750;10.570;2022-09-09T10:52:14;25.40;99.90
14779;DHT22;7481;53.750;10.570;2022-09-09T10:55:26;25.30;99.90
14779;DHT22;7481;53.750;10.570;2022-09-09T10:58:22;25.80;99.90
14779;DHT22;7481;53.750;10.570;2022-09-09T11:01:19;25.70;99.90
14779;DHT22;7481;53.750;10.570;2022-09-09T11:07:10;26.20;99.90
14779;DHT22;7481;53.750;10.570;2022-09-09T11:10:04;26.40;99.90
14779;DHT22;7481;53.750;10.570;2022-09-09T11:12:59;26.90;99.90
14779;DHT22;7481;53.750;10.570;2022-09-09T11:16:05;27.30;99.90
14779;DHT22;7481;53.750;10.570;2022-09-09T11:19:04;26.80;99.90
14779;DHT22;7481;53.750;10.570;2022-09-09T11:21:57;26.60;99.90
14779;DHT22;7481;53.750;10.570;2022-09-09T11:24:53;26.00;99.90
14779;DHT22;7481;53.750;10.570;2022-09-09T11:28:10;25.40;99.90
14779;DHT22;7481;53.750;10.570;2022-09-09T11:31:30;24.90;99.90
14779;DHT22;7481;53.750;10.570;2022-09-09T11:34:47;25.00;99.90
14779;DHT22;7481;53.750;10.570;2022-09-09T11:40:32;25.30;99.90
14779;DHT22;7481;53.750;10.570;2022-09-09T11:43:44;25.50;99.90
14779;DHT22;7481;53.750;10.570;2022-09-09T11:46:36;25.90;99.90
14779;DHT22;7481;53.750;10.570;2022-09-09T11:49:39;26.30;99.90
14779;DHT22;7481;53.750;10.570;2022-09-09T11:52:40;26.30;99.90
14779;DHT22;7481;53.750;10.570;2022-09-09T11:55:34;26.00;99.90
14779;DHT22;7481;53.750;10.570;2022-09-09T11:58:22;25.50;99.90
14779;DHT22;7481;53.750;10.570;2022-09-09T12:01:25;25.20;99.90
14779;DHT22;7481;53.750;10.570;2022-09-09T12:04:26;25.30;99.90
14779;DHT22;7481;53.750;10.570;2022-09-09T12:07:35;25.60;99.90
14779;DHT22;7481;53.750;10.570;2022-09-09T12:10:30;25.50;99.90
14779;DHT22;7481;53.750;10.570;2022-09-09T12:13:21;24.90;99.90
14779;DHT22;7481;53.750;10.570;2022-09-09T12:16:34;24.70;99.90
14779;DHT22;7481;53.750;10.570;2022-09-09T12:19:22;25.00;99.90
14779;DHT22;7481;53.750;10.570;2022-09-09T12:22:27;25.20;99.90
14779;DHT22;7481;53.750;10.570;2022-09-09T12:25:30;24.90;99.90
14779;DHT22;7481;53.750;10.570;2022-09-09T12:31:37;25.50;99.90
14779;DHT22;7481;53.750;10.570;2022-09-09T12:34:38;25.80;99.90
14779;DHT22;7481;53.750;10.570;2022-09-09T12:37:46;25.30;99.90
14779;DHT22;7481;53.750;10.570;2022-09-09T12:40:35;25.00;99.90
14779;DHT22;7481;53.750;10.570;2022-09-09T12:43:23;24.90;99.90
14779;DHT22;7481;53.750;10.570;2022-09-09T12:46:23;24.60;99.90
14779;DHT22;7481;53.750;10.570;2022-09-09T12:49:35;24.20;99.90
14779;DHT22;7481;53.750;10.570;2022-09-09T12:52:36;24.20;99.90
14779;DHT22;7481;53.750;10.570;2022-09-09T12:55:30;23.90;99.90
14779;DHT22;7481;53.750;10.570;2022-09-09T12:58:18;23.50;99.90
14779;DHT22;7481;53.750;10.570;2022-09-09T13:01:06;23.20;99.90
14779;DHT22;7481;53.750;10.570;2022-09-09T13:04:22;23.00;99.90
14779;DHT22;7481;53.750;10.570;2022-09-09T13:07:09;22.80;99.90
14779;DHT22;7481;53.750;10.570;2022-09-09T13:09:57;22.80;99.90
14779;DHT22;7481;53.750;10.570;2022-09-09T13:12:45;22.80;99.90
14779;DHT22;7481;53.750;10.570;2022-09-09T13:15:32;22.80;99.90
14779;DHT22;7481;53.750;10.570;2022-09-09T13:18:22;22.70;99.90
14779;DHT22;7481;53.750;10.570;2022-09-09T13:21:10;22.40;99.90
14779;DHT22;7481;53.750;10.570;2022-09-09T13:23:57;22.40;99.90
14779;DHT22;7481;53.750;10.570;2022-09-09T13:26:54;22.30;99.90
14779;DHT22;7481;53.750;10.570;2022-09-09T13:29:51;22.20;99.90
14779;DHT22;7481;53.750;10.570;2022-09-09T13:32:39;22.00;99.90
14779;DHT22;7481;53.750;10.570;2022-09-09T13:35:27;21.70;99.90
14779;DHT22;7481;53.750;10.570;2022-09-09T13:38:15;21.50;99.90
14779;DHT22;7481;53.750;10.570;2022-09-09T13:41:05;21.40;99.90
14779;DHT22;7481;53.750;10.570;2022-09-09T13:43:52;21.00;99.90
14779;DHT22;7481;53.750;10.570;2022-09-09T13:46:42;21.00;99.90
14779;DHT22;7481;53.750;10.570;2022-09-09T13:49:29;20.80;99.90
14779;DHT22;7481;53.750;10.570;2022-09-09T13:52:18;20.80;99.90
14779;DHT22;7481;53.750;10.570;2022-09-09T13:55:05;20.70;99.90
14779;DHT22;7481;53.750;10.570;2022-09-09T13:57:59;20.80;99.90
14779;DHT22;7481;53.750;10.570;2022-09-09T14:00:47;20.70;99.90
14779;DHT22;7481;53.750;10.570;2022-09-09T14:03:34;20.70;99.90
14779;DHT22;7481;53.750;10.570;2022-09-09T14:06:21;20.60;99.90
14779;DHT22;7481;53.750;10.570;2022-09-09T14:09:12;20.60;99.90
14779;DHT22;7481;53.750;10.570;2022-09-09T14:11:59;20.60;99.90
14779;DHT22;7481;53.750;10.570;2022-09-09T14:14:47;20.50;99.90
14779;DHT22;7481;53.750;10.570;2022-09-09T14:17:34;20.40;99.90
14779;DHT22;7481;53.750;10.570;2022-09-09T14:20:22;20.40;99.90
14779;DHT22;7481;53.750;10.570;2022-09-09T14:23:11;20.30;99.90
14779;DHT22;7481;53.750;10.570;2022-09-09T14:25:58;20.30;99.90
14779;DHT22;7481;53.750;10.570;2022-09-09T14:28:45;20.30;99.90
14779;DHT22;7481;53.750;10.570;2022-09-09T14:31:41;20.30;99.90
14779;DHT22;7481;53.750;10.570;2022-09-09T14:34:28;20.20;99.90
14779;DHT22;7481;53.750;10.570;2022-09-09T14:37:16;20.10;99.90
14779;DHT22;7481;53.750;10.570;2022-09-09T14:40:03;19.90;99.90
14779;DHT22;7481;53.750;10.570;2022-09-09T14:42:52;19.50;99.90
14779;DHT22;7481;53.750;10.570;2022-09-09T14:45:39;19.30;99.90
14779;DHT22;7481;53.750;10.570;2022-09-09T14:48:26;19.30;99.90
14779;DHT22;7481;53.750;10.570;2022-09-09T14:51:19;19.40;99.90
14779;DHT22;7481;53.750;10.570;2022-09-09T14:54:07;19.40;99.90
14779;DHT22;7481;53.750;10.570;2022-09-09T14:56:54;19.40;99.90
14779;DHT22;7481;53.750;10.570;2022-09-09T14:59:41;19.30;99.90
14779;DHT22;7481;53.750;10.570;2022-09-09T15:02:27;19.20;99.90
14779;DHT22;7481;53.750;10.570;2022-09-09T15:05:16;19.20;99.90
14779;DHT22;7481;53.750;10.570;2022-09-09T15:08:03;19.10;99.90
14779;DHT22;7481;53.750;10.570;2022-09-09T15:10:50;19.10;99.90
14779;DHT22;7481;53.750;10.570;2022-09-09T15:13:38;19.10;99.90
14779;DHT22;7481;53.750;10.570;2022-09-09T15:16:27;19.20;99.90
14779;DHT22;7481;53.750;10.570;2022-09-09T15:19:14;19.20;99.90
14779;DHT22;7481;53.750;10.570;2022-09-09T15:22:02;19.30;99.90
14779;DHT22;7481;53.750;10.570;2022-09-09T15:24:49;19.30;99.90
14779;DHT22;7481;53.750;10.570;2022-09-09T15:27:35;19.30;99.90
14779;DHT22;7481;53.750;10.570;2022-09-09T15:30:25;19.30;99.90
14779;DHT22;7481;53.750;10.570;2022-09-09T15:33:12;19.20;99.90
14779;DHT22;7481;53.750;10.570;2022-09-09T15:35:59;19.10;99.90
14779;DHT22;7481;53.750;10.570;2022-09-09T15:38:46;19.00;99.90
14779;DHT22;7481;53.750;10.570;2022-09-09T15:41:34;18.90;99.90
14779;DHT22;7481;53.750;10.570;2022-09-09T15:44:21;18.80;99.90
14779;DHT22;7481;53.750;10.570;2022-09-09T15:47:12;18.70;99.90
14779;DHT22;7481;53.750;10.570;2022-09-09T15:49:59;18.60;99.90
14779;DHT22;7481;53.750;10.570;2022-09-09T15:52:46;18.40;99.90
14779;DHT22;7481;53.750;10.570;2022-09-09T15:55:34;18.40;99.90
14779;DHT22;7481;53.750;10.570;2022-09-09T15:58:20;18.20;99.90
14779;DHT22;7481;53.750;10.570;2022-09-09T16:01:09;18.10;99.90
14779;DHT22;7481;53.750;10.570;2022-09-09T16:03:58;18.10;99.90
14779;DHT22;7481;53.750;10.570;2022-09-09T16:06:46;18.10;99.90
14779;DHT22;7481;53.750;10.570;2022-09-09T16:09:34;18.00;99.90
14779;DHT22;7481;53.750;10.570;2022-09-09T16:12:21;18.00;99.90
14779;DHT22;7481;53.750;10.570;2022-09-09T16:15:08;17.90;99.90
14779;DHT22;7481;53.750;10.570;2022-09-09T16:17:55;17.90;99.90
14779;DHT22;7481;53.750;10.570;2022-09-09T16:20:42;17.80;99.90
14779;DHT22;7481;53.750;10.570;2022-09-09T16:23:29;17.70;99.90
14779;DHT22;7481;53.750;10.570;2022-09-09T16:26:17;17.70;99.90
14779;DHT22;7481;53.750;10.570;2022-09-09T16:29:04;17.70;99.90
14779;DHT22;7481;53.750;10.570;2022-09-09T16:31:51;17.60;99.90
14779;DHT22;7481;53.750;10.570;2022-09-09T16:34:38;17.70;99.90
14779;DHT22;7481;53.750;10.570;2022-09-09T17:14:57;17.60;99.90
14779;DHT22;7481;53.750;10.570;2022-09-09T17:17:46;17.60;99.90
14779;DHT22;7481;53.750;10.570;2022-09-09T17:20:37;17.60;99.90
14779;DHT22;7481;53.750;10.570;2022-09-09T17:23:36;17.60;99.90
14779;DHT22;7481;53.750;10.570;2022-09-09T17:26:27;17.60;99.90
14779;DHT22;7481;53.750;10.570;2022-09-09T17:29:14;17.50;99.90
14779;DHT22;7481;53.750;10.570;2022-09-09T17:32:02;17.50;99.90
14779;DHT22;7481;53.750;10.570;2022-09-09T17:34:49;17.50;99.90
14779;DHT22;7481;53.750;10.570;2022-09-09T17:37:36;17.40;99.90
14779;DHT22;7481;53.750;10.570;2022-09-09T17:40:23;17.40;99.90
14779;DHT22;7481;53.750;10.570;2022-09-09T17:43:10;17.30;99.90
14779;DHT22;7481;53.750;10.570;2022-09-09T17:46:09;17.30;99.90
14779;DHT22;7481;53.750;10.570;2022-09-09T17:48:58;17.20;99.90
14779;DHT22;7481;53.750;10.570;2022-09-09T17:51:46;17.20;99.90
14779;DHT22;7481;53.750;10.570;2022-09-09T17:54:33;17.10;99.90
14779;DHT22;7481;53.750;10.570;2022-09-09T17:57:20;17.10;99.90
14779;DHT22;7481;53.750;10.570;2022-09-09T18:00:09;17.00;99.90
14779;DHT22;7481;53.750;10.570;2022-09-09T18:02:57;17.00;99.90
14779;DHT22;7481;53.750;10.570;2022-09-09T18:05:44;16.90;99.90
14779;DHT22;7481;53.750;10.570;2022-09-09T18:08:31;17.00;99.90
14779;DHT22;7481;53.750;10.570;2022-09-09T18:11:25;16.90;99.90
14779;DHT22;7481;53.750;10.570;2022-09-09T18:14:24;16.80;99.90
14779;DHT22;7481;53.750;10.570;2022-09-09T18:17:11;16.80;99.90
14779;DHT22;7481;53.750;10.570;2022-09-09T18:19:58;16.80;99.90
14779;DHT22;7481;53.750;10.570;2022-09-09T18:22:45;16.80;99.90
14779;DHT22;7481;53.750;10.570;2022-09-09T18:25:39;16.80;99.90
14779;DHT22;7481;53.750;10.570;2022-09-09T18:28:27;16.60;99.90
14779;DHT22;7481;53.750;10.570;2022-09-09T18:31:16;16.60;99.90
14779;DHT22;7481;53.750;10.570;2022-09-09T18:34:04;16.50;99.90
14779;DHT22;7481;53.750;10.570;2022-09-09T18:36:52;16.40;99.90
14779;DHT22;7481;53.750;10.570;2022-09-09T18:39:40;16.40;99.90
14779;DHT22;7481;53.750;10.570;2022-09-09T18:42:27;16.30;99.90
14779;DHT22;7481;53.750;10.570;2022-09-09T18:45:14;16.30;99.90
14779;DHT22;7481;53.750;10.570;2022-09-09T18:48:01;16.30;99.90
14779;DHT22;7481;53.750;10.570;2022-09-09T18:50:48;15.70;99.90
14779;DHT22;7481;53.750;10.570;2022-09-09T18:53:36;16.20;99.90
14779;DHT22;7481;53.750;10.570;2022-09-09T18:56:23;16.20;99.90
14779;DHT22;7481;53.750;10.570;2022-09-09T18:59:13;16.20;99.90
14779;DHT22;7481;53.750;10.570;2022-09-09T19:02:00;16.20;99.90
14779;DHT22;7481;53.750;10.570;2022-09-09T19:04:47;16.10;99.90
14779;DHT22;7481;53.750;10.570;2022-09-09T19:10:41;16.10;99.90
14779;DHT22;7481;53.750;10.570;2022-09-09T19:13:28;16.20;99.90
14779;DHT22;7481;53.750;10.570;2022-09-09T19:16:16;16.20;99.90
14779;DHT22;7481;53.750;10.570;2022-09-09T19:19:06;16.20;99.90
14779;DHT22;7481;53.750;10.570;2022-09-09T19:21:53;16.30;99.90
14779;DHT22;7481;53.750;10.570;2022-09-09T19:24:44;16.30;99.90
14779;DHT22;7481;53.750;10.570;2022-09-09T19:27:31;16.20;99.90
14779;DHT22;7481;53.750;10.570;2022-09-09T19:30:18;16.30;99.90
14779;DHT22;7481;53.750;10.570;2022-09-09T19:33:05;16.30;99.90